sensor_id;sensor_type;location;lat;lon;timestamp;temperature;humidity
18141;DHT22;9196;49.194;12.526;2023-09-12T00:00:08;18.90;99.90
18141;DHT22;9196;49.194;12.526;2023-09-12T00:02:35;19.00;99.90
18141;DHT22;9196;49.194;12.526;2023-09-12T00:05:02;19.00;99.90
18141;DHT22;9196;49.194;12.526;2023-09-12T00:07:30;18.90;99.90
18141;DHT22;9196;49.194;12.526;2023-09-12T00:09:57;18.90;99.90
18141;DHT22;9196;49.194;12.526;2023-09-12T00:12:24;18.80;99.90
18141;DHT22;9196;49.194;12.526;2023-09-12T00:14:51;18.90;99.90
18141;DHT22;9196;49.194;12.526;2023-09-12T00:17:19;18.90;99.90
18141;DHT22;9196;49.194;12.526;2023-09-12T00:19:46;18.80;99.90
18141;DHT22;9196;49.194;12.526;2023-09-12T00:22:13;18.80;99.90
18141;DHT22;9196;49.194;12.526;2023-09-12T00:24:40;18.70;99.90
18141;DHT22;9196;49.194;12.526;2023-09-12T00:27:07;18.50;99.90
18141;DHT22;9196;49.194;12.526;2023-09-12T00:29:34;18.60;99.90
18141;DHT22;9196;49.194;12.526;2023-09-12T00:32:01;18.50;99.90
18141;DHT22;9196;49.194;12.526;2023-09-12T00:34:29;18.50;99.90
18141;DHT22;9196;49.194;12.526;2023-09-12T00:36:56;18.50;99.90
18141;DHT22;9196;49.194;12.526;2023-09-12T00:39:22;18.50;99.90
18141;DHT22;9196;49.194;12.526;2023-09-12T00:41:49;18.50;99.90
18141;DHT22;9196;49.194;12.526;2023-09-12T00:44:16;18.40;99.90
18141;DHT22;9196;49.194;12.526;2023-09-12T00:46:43;18.40;99.90
18141;DHT22;9196;49.194;12.526;2023-09-12T00:49:12;18.40;99.90
18141;DHT22;9196;49.194;12.526;2023-09-12T00:51:42;18.30;99.90
18141;DHT22;9196;49.194;12.526;2023-09-12T00:54:10;18.30;99.90
18141;DHT22;9196;49.194;12.526;2023-09-12T00:56:37;18.30;99.90
18141;DHT22;9196;49.194;12.526;2023-09-12T00:59:04;18.30;99.90
18141;DHT22;9196;49.194;12.526;2023-09-12T01:01:32;18.30;99.90
18141;DHT22;9196;49.194;12.526;2023-09-12T01:04:00;18.30;99.90
18141;DHT22;9196;49.194;12.526;2023-09-12T01:06:29;18.30;99.90
18141;DHT22;9196;49.194;12.526;2023-09-12T01:08:58;18.20;99.90
18141;DHT22;9196;49.194;12.526;2023-09-12T01:11:26;18.10;99.90
18141;DHT22;9196;49.194;12.526;2023-09-12T01:13:54;18.30;99.90
18141;DHT22;9196;49.194;12.526;2023-09-12T01:16:20;18.20;99.90
18141;DHT22;9196;49.194;12.526;2023-09-12T01:18:47;18.10;99.90
18141;DHT22;9196;49.194;12.526;2023-09-12T01:21:37;18.10;99.90
18141;DHT22;9196;49.194;12.526;2023-09-12T01:24:21;18.00;99.90
18141;DHT22;9196;49.194;12.526;2023-09-12T01:26:59;18.00;99.90
18141;DHT22;9196;49.194;12.526;2023-09-12T01:29:31;18.00;99.90
18141;DHT22;9196;49.194;12.526;2023-09-12T01:31:59;17.90;99.90
18141;DHT22;9196;49.194;12.526;2023-09-12T01:34:27;17.90;99.90
18141;DHT22;9196;49.194;12.526;2023-09-12T01:36:53;17.90;99.90
18141;DHT22;9196;49.194;12.526;2023-09-12T01:39:20;17.90;99.90
18141;DHT22;9196;49.194;12.526;2023-09-12T01:41:48;17.90;99.90
18141;DHT22;9196;49.194;12.526;2023-09-12T01:44:17;18.00;99.90
18141;DHT22;9196;49.194;12.526;2023-09-12T01:46:46;17.90;99.90
18141;DHT22;9196;49.194;12.526;2023-09-12T01:49:16;17.90;99.90
18141;DHT22;9196;49.194;12.526;2023-09-12T01:51:44;17.90;99.90
18141;DHT22;9196;49.194;12.526;2023-09-12T01:54:12;17.80;99.90
18141;DHT22;9196;49.194;12.526;2023-09-12T01:56:39;17.80;99.90
18141;DHT22;9196;49.194;12.526;2023-09-12T01:59:07;17.80;99.90
18141;DHT22;9196;49.194;12.526;2023-09-12T02:01:34;17.70;99.90
18141;DHT22;9196;49.194;12.526;2023-09-12T02:04:02;17.70;99.90
18141;DHT22;9196;49.194;12.526;2023-09-12T02:06:34;17.70;99.90
18141;DHT22;9196;49.194;12.526;2023-09-12T02:09:01;17.70;99.90
18141;DHT22;9196;49.194;12.526;2023-09-12T02:11:28;17.70;99.90
18141;DHT22;9196;49.194;12.526;2023-09-12T02:13:54;17.50;99.90
18141;DHT22;9196;49.194;12.526;2023-09-12T02:16:21;17.50;99.90
18141;DHT22;9196;49.194;12.526;2023-09-12T02:18:48;17.40;99.90
18141;DHT22;9196;49.194;12.526;2023-09-12T02:21:16;17.50;99.90
18141;DHT22;9196;49.194;12.526;2023-09-12T02:23:44;17.60;99.90
18141;DHT22;9196;49.194;12.526;2023-09-12T02:26:10;17.50;99.90
18141;DHT22;9196;49.194;12.526;2023-09-12T02:28:37;17.50;99.90
18141;DHT22;9196;49.194;12.526;2023-09-12T02:31:09;17.50;99.90
18141;DHT22;9196;49.194;12.526;2023-09-12T02:33:37;17.40;99.90
18141;DHT22;9196;49.194;12.526;2023-09-12T02:36:04;17.40;99.90
18141;DHT22;9196;49.194;12.526;2023-09-12T02:38:33;17.20;99.90
18141;DHT22;9196;49.194;12.526;2023-09-12T02:41:00;17.20;99.90
18141;DHT22;9196;49.194;12.526;2023-09-12T02:43:28;17.20;99.90
18141;DHT22;9196;49.194;12.526;2023-09-12T02:45:55;17.30;99.90
18141;DHT22;9196;49.194;12.526;2023-09-12T02:48:22;17.30;99.90
18141;DHT22;9196;49.194;12.526;2023-09-12T02:50:49;17.30;99.90
18141;DHT22;9196;49.194;12.526;2023-09-12T02:53:16;17.20;99.90
18141;DHT22;9196;49.194;12.526;2023-09-12T02:55:44;17.30;99.90
18141;DHT22;9196;49.194;12.526;2023-09-12T02:58:11;17.30;99.90
18141;DHT22;9196;49.194;12.526;2023-09-12T03:00:38;17.20;99.90
18141;DHT22;9196;49.194;12.526;2023-09-12T03:03:06;17.20;99.90
18141;DHT22;9196;49.194;12.526;2023-09-12T03:05:34;17.30;99.90
18141;DHT22;9196;49.194;12.526;2023-09-12T03:08:01;17.20;99.90
18141;DHT22;9196;49.194;12.526;2023-09-12T03:10:29;17.10;99.90
18141;DHT22;9196;49.194;12.526;2023-09-12T03:12:57;17.10;99.90
18141;DHT22;9196;49.194;12.526;2023-09-12T03:15:24;17.00;99.90
18141;DHT22;9196;49.194;12.526;2023-09-12T03:17:51;17.00;99.90
18141;DHT22;9196;49.194;12.526;2023-09-12T03:20:17;17.10;99.90
18141;DHT22;9196;49.194;12.526;2023-09-12T03:22:45;17.10;99.90
18141;DHT22;9196;49.194;12.526;2023-09-12T03:25:12;17.10;99.90
18141;DHT22;9196;49.194;12.526;2023-09-12T03:27:39;17.00;99.90
18141;DHT22;9196;49.194;12.526;2023-09-12T03:30:09;17.00;99.90
18141;DHT22;9196;49.194;12.526;2023-09-12T03:32:36;16.90;99.90
18141;DHT22;9196;49.194;12.526;2023-09-12T03:35:03;17.00;99.90
18141;DHT22;9196;49.194;12.526;2023-09-12T03:37:30;17.00;99.90
18141;DHT22;9196;49.194;12.526;2023-09-12T03:39:57;16.90;99.90
18141;DHT22;9196;49.194;12.526;2023-09-12T03:42:23;16.90;99.90
18141;DHT22;9196;49.194;12.526;2023-09-12T03:44:50;16.80;99.90
18141;DHT22;9196;49.194;12.526;2023-09-12T03:47:18;16.70;99.90
18141;DHT22;9196;49.194;12.526;2023-09-12T03:49:45;16.70;99.90
18141;DHT22;9196;49.194;12.526;2023-09-12T03:52:12;16.80;99.90
18141;DHT22;9196;49.194;12.526;2023-09-12T03:54:39;16.80;99.90
18141;DHT22;9196;49.194;12.526;2023-09-12T03:57:06;16.90;99.90
18141;DHT22;9196;49.194;12.526;2023-09-12T03:59:33;16.90;99.90
18141;DHT22;9196;49.194;12.526;2023-09-12T04:02:02;16.90;99.90
18141;DHT22;9196;49.194;12.526;2023-09-12T04:04:30;17.00;99.90
18141;DHT22;9196;49.194;12.526;2023-09-12T04:06:57;17.00;99.90
18141;DHT22;9196;49.194;12.526;2023-09-12T04:09:23;17.10;99.90
18141;DHT22;9196;49.194;12.526;2023-09-12T04:11:50;17.00;99.90
18141;DHT22;9196;49.194;12.526;2023-09-12T04:14:17;17.00;99.90
18141;DHT22;9196;49.194;12.526;2023-09-12T04:16:44;17.10;99.90
18141;DHT22;9196;49.194;12.526;2023-09-12T04:19:11;17.00;99.90
18141;DHT22;9196;49.194;12.526;2023-09-12T04:21:40;17.00;99.90
18141;DHT22;9196;49.194;12.526;2023-09-12T04:24:08;17.00;99.90
18141;DHT22;9196;49.194;12.526;2023-09-12T04:26:35;17.00;99.90
18141;DHT22;9196;49.194;12.526;2023-09-12T04:29:01;17.00;99.90
18141;DHT22;9196;49.194;12.526;2023-09-12T04:31:28;17.00;99.90
18141;DHT22;9196;49.194;12.526;2023-09-12T04:33:55;16.90;99.90
18141;DHT22;9196;49.194;12.526;2023-09-12T04:36:22;16.90;99.90
18141;DHT22;9196;49.194;12.526;2023-09-12T04:38:51;17.00;99.90
18141;DHT22;9196;49.194;12.526;2023-09-12T04:41:18;17.00;99.90
18141;DHT22;9196;49.194;12.526;2023-09-12T04:43:49;17.10;99.90
18141;DHT22;9196;49.194;12.526;2023-09-12T04:46:15;17.00;99.90
18141;DHT22;9196;49.194;12.526;2023-09-12T04:48:42;17.00;99.90
18141;DHT22;9196;49.194;12.526;2023-09-12T04:51:09;17.10;99.90
18141;DHT22;9196;49.194;12.526;2023-09-12T04:53:36;17.10;99.90
18141;DHT22;9196;49.194;12.526;2023-09-12T04:56:05;16.90;99.90
18141;DHT22;9196;49.194;12.526;2023-09-12T04:58:35;16.80;99.90
18141;DHT22;9196;49.194;12.526;2023-09-12T05:01:02;16.80;99.90
18141;DHT22;9196;49.194;12.526;2023-09-12T05:03:29;16.70;99.90
18141;DHT22;9196;49.194;12.526;2023-09-12T05:05:55;16.60;99.90
18141;DHT22;9196;49.194;12.526;2023-09-12T05:08:23;16.70;99.90
18141;DHT22;9196;49.194;12.526;2023-09-12T05:10:49;16.70;99.90
18141;DHT22;9196;49.194;12.526;2023-09-12T05:13:18;16.70;99.90
18141;DHT22;9196;49.194;12.526;2023-09-12T05:15:45;16.80;99.90
18141;DHT22;9196;49.194;12.526;2023-09-12T05:18:11;16.80;99.90
18141;DHT22;9196;49.194;12.526;2023-09-12T05:20:38;16.90;99.90
18141;DHT22;9196;49.194;12.526;2023-09-12T05:23:05;16.90;99.90
18141;DHT22;9196;49.194;12.526;2023-09-12T05:25:32;17.00;99.90
18141;DHT22;9196;49.194;12.526;2023-09-12T05:27:59;17.00;99.90
18141;DHT22;9196;49.194;12.526;2023-09-12T05:30:27;17.10;99.90
18141;DHT22;9196;49.194;12.526;2023-09-12T05:32:54;17.30;99.90
18141;DHT22;9196;49.194;12.526;2023-09-12T05:35:21;17.40;99.90
18141;DHT22;9196;49.194;12.526;2023-09-12T05:37:47;17.50;99.90
18141;DHT22;9196;49.194;12.526;2023-09-12T05:40:14;17.60;99.90
18141;DHT22;9196;49.194;12.526;2023-09-12T05:42:41;17.60;99.90
18141;DHT22;9196;49.194;12.526;2023-09-12T05:45:09;17.70;99.90
18141;DHT22;9196;49.194;12.526;2023-09-12T05:47:37;17.70;99.90
18141;DHT22;9196;49.194;12.526;2023-09-12T05:50:04;17.80;99.90
18141;DHT22;9196;49.194;12.526;2023-09-12T05:52:32;17.80;99.90
18141;DHT22;9196;49.194;12.526;2023-09-12T05:54:59;17.80;99.90
18141;DHT22;9196;49.194;12.526;2023-09-12T05:57:26;18.00;99.90
18141;DHT22;9196;49.194;12.526;2023-09-12T05:59:53;17.90;99.90
18141;DHT22;9196;49.194;12.526;2023-09-12T06:02:19;17.90;99.90
18141;DHT22;9196;49.194;12.526;2023-09-12T06:04:47;17.90;99.90
18141;DHT22;9196;49.194;12.526;2023-09-12T06:07:15;17.90;99.90
18141;DHT22;9196;49.194;12.526;2023-09-12T06:09:42;18.00;99.90
18141;DHT22;9196;49.194;12.526;2023-09-12T06:12:08;18.10;99.90
18141;DHT22;9196;49.194;12.526;2023-09-12T06:14:35;18.20;99.90
18141;DHT22;9196;49.194;12.526;2023-09-12T06:17:02;18.20;99.90
18141;DHT22;9196;49.194;12.526;2023-09-12T06:19:29;18.30;99.90
18141;DHT22;9196;49.194;12.526;2023-09-12T06:21:58;18.40;99.90
18141;DHT22;9196;49.194;12.526;2023-09-12T06:24:26;18.50;99.90
18141;DHT22;9196;49.194;12.526;2023-09-12T06:26:53;18.50;99.90
18141;DHT22;9196;49.194;12.526;2023-09-12T06:29:19;18.60;99.90
18141;DHT22;9196;49.194;12.526;2023-09-12T06:31:46;18.50;99.90
18141;DHT22;9196;49.194;12.526;2023-09-12T06:34:13;18.40;99.90
18141;DHT22;9196;49.194;12.526;2023-09-12T06:36:40;18.30;99.90
18141;DHT22;9196;49.194;12.526;2023-09-12T06:39:11;18.40;99.90
18141;DHT22;9196;49.194;12.526;2023-09-12T06:41:38;18.50;99.90
18141;DHT22;9196;49.194;12.526;2023-09-12T06:44:05;18.70;99.90
18141;DHT22;9196;49.194;12.526;2023-09-12T06:46:33;18.80;99.90
18141;DHT22;9196;49.194;12.526;2023-09-12T06:49:01;18.80;99.90
18141;DHT22;9196;49.194;12.526;2023-09-12T06:51:28;18.90;99.90
18141;DHT22;9196;49.194;12.526;2023-09-12T06:53:55;19.00;99.90
18141;DHT22;9196;49.194;12.526;2023-09-12T06:56:23;19.10;99.90
18141;DHT22;9196;49.194;12.526;2023-09-12T06:58:50;19.30;99.90
18141;DHT22;9196;49.194;12.526;2023-09-12T07:01:18;19.50;99.90
18141;DHT22;9196;49.194;12.526;2023-09-12T07:03:45;19.50;99.90
18141;DHT22;9196;49.194;12.526;2023-09-12T07:06:12;19.60;99.90
18141;DHT22;9196;49.194;12.526;2023-09-12T07:08:39;19.70;99.90
18141;DHT22;9196;49.194;12.526;2023-09-12T07:11:06;19.80;99.90
18141;DHT22;9196;49.194;12.526;2023-09-12T07:13:34;20.00;99.90
18141;DHT22;9196;49.194;12.526;2023-09-12T07:16:01;20.10;99.90
18141;DHT22;9196;49.194;12.526;2023-09-12T07:18:29;20.20;99.90
18141;DHT22;9196;49.194;12.526;2023-09-12T07:20:59;20.40;99.90
18141;DHT22;9196;49.194;12.526;2023-09-12T07:23:26;20.40;99.90
18141;DHT22;9196;49.194;12.526;2023-09-12T07:25:54;20.60;99.90
18141;DHT22;9196;49.194;12.526;2023-09-12T07:28:22;20.60;99.90
18141;DHT22;9196;49.194;12.526;2023-09-12T07:30:51;20.80;99.90
18141;DHT22;9196;49.194;12.526;2023-09-12T07:33:18;20.90;99.90
18141;DHT22;9196;49.194;12.526;2023-09-12T07:35:45;21.00;99.90
18141;DHT22;9196;49.194;12.526;2023-09-12T07:38:13;21.10;99.90
18141;DHT22;9196;49.194;12.526;2023-09-12T07:40:41;21.30;99.90
18141;DHT22;9196;49.194;12.526;2023-09-12T07:43:10;21.40;99.90
18141;DHT22;9196;49.194;12.526;2023-09-12T07:45:37;21.50;99.90
18141;DHT22;9196;49.194;12.526;2023-09-12T07:48:07;21.60;99.90
18141;DHT22;9196;49.194;12.526;2023-09-12T07:50:34;21.80;99.90
18141;DHT22;9196;49.194;12.526;2023-09-12T07:53:04;21.90;99.90
18141;DHT22;9196;49.194;12.526;2023-09-12T07:55:31;21.60;99.90
18141;DHT22;9196;49.194;12.526;2023-09-12T07:58:01;21.60;99.90
18141;DHT22;9196;49.194;12.526;2023-09-12T08:00:28;21.60;99.90
18141;DHT22;9196;49.194;12.526;2023-09-12T08:02:55;21.70;99.90
18141;DHT22;9196;49.194;12.526;2023-09-12T08:05:24;21.80;99.90
18141;DHT22;9196;49.194;12.526;2023-09-12T08:07:50;21.90;99.90
18141;DHT22;9196;49.194;12.526;2023-09-12T08:10:17;22.10;99.90
18141;DHT22;9196;49.194;12.526;2023-09-12T08:12:44;22.20;99.90
18141;DHT22;9196;49.194;12.526;2023-09-12T08:15:11;22.40;99.90
18141;DHT22;9196;49.194;12.526;2023-09-12T08:17:38;22.50;99.90
18141;DHT22;9196;49.194;12.526;2023-09-12T08:20:06;22.50;99.90
18141;DHT22;9196;49.194;12.526;2023-09-12T08:22:36;22.60;99.90
18141;DHT22;9196;49.194;12.526;2023-09-12T08:25:04;22.80;99.90
18141;DHT22;9196;49.194;12.526;2023-09-12T08:27:31;22.90;99.90
18141;DHT22;9196;49.194;12.526;2023-09-12T08:29:57;23.00;99.90
18141;DHT22;9196;49.194;12.526;2023-09-12T08:32:24;23.00;99.90
18141;DHT22;9196;49.194;12.526;2023-09-12T08:34:51;23.10;99.90
18141;DHT22;9196;49.194;12.526;2023-09-12T08:37:18;23.20;99.90
18141;DHT22;9196;49.194;12.526;2023-09-12T08:39:46;23.30;99.90
18141;DHT22;9196;49.194;12.526;2023-09-12T08:42:15;23.40;99.90
18141;DHT22;9196;49.194;12.526;2023-09-12T08:44:42;23.50;99.90
18141;DHT22;9196;49.194;12.526;2023-09-12T08:47:09;23.70;99.90
18141;DHT22;9196;49.194;12.526;2023-09-12T08:49:38;23.70;99.90
18141;DHT22;9196;49.194;12.526;2023-09-12T08:52:05;23.80;99.90
18141;DHT22;9196;49.194;12.526;2023-09-12T08:54:32;23.80;99.90
18141;DHT22;9196;49.194;12.526;2023-09-12T08:57:02;24.00;99.90
18141;DHT22;9196;49.194;12.526;2023-09-12T08:59:31;24.10;99.90
18141;DHT22;9196;49.194;12.526;2023-09-12T09:01:58;24.30;99.90
18141;DHT22;9196;49.194;12.526;2023-09-12T09:04:28;24.40;99.90
18141;DHT22;9196;49.194;12.526;2023-09-12T09:06:57;24.50;99.90
18141;DHT22;9196;49.194;12.526;2023-09-12T09:09:25;24.60;99.90
18141;DHT22;9196;49.194;12.526;2023-09-12T09:11:52;24.70;99.90
18141;DHT22;9196;49.194;12.526;2023-09-12T09:14:20;24.70;99.90
18141;DHT22;9196;49.194;12.526;2023-09-12T09:16:47;24.60;99.90
18141;DHT22;9196;49.194;12.526;2023-09-12T09:19:15;24.70;99.90
18141;DHT22;9196;49.194;12.526;2023-09-12T09:21:44;24.80;99.90
18141;DHT22;9196;49.194;12.526;2023-09-12T09:24:12;25.00;99.90
18141;DHT22;9196;49.194;12.526;2023-09-12T09:26:44;25.20;99.90
18141;DHT22;9196;49.194;12.526;2023-09-12T09:29:14;25.20;99.90
18141;DHT22;9196;49.194;12.526;2023-09-12T09:31:44;25.30;99.90
18141;DHT22;9196;49.194;12.526;2023-09-12T09:34:13;25.40;99.90
18141;DHT22;9196;49.194;12.526;2023-09-12T09:36:43;25.50;99.90
18141;DHT22;9196;49.194;12.526;2023-09-12T09:39:10;25.70;99.90
18141;DHT22;9196;49.194;12.526;2023-09-12T09:41:39;25.70;99.90
18141;DHT22;9196;49.194;12.526;2023-09-12T09:44:07;25.80;99.90
18141;DHT22;9196;49.194;12.526;2023-09-12T09:46:35;25.90;99.90
18141;DHT22;9196;49.194;12.526;2023-09-12T09:49:03;26.00;99.90
18141;DHT22;9196;49.194;12.526;2023-09-12T09:51:31;26.20;99.90
18141;DHT22;9196;49.194;12.526;2023-09-12T09:53:58;26.40;99.90
18141;DHT22;9196;49.194;12.526;2023-09-12T09:56:26;26.50;99.90
18141;DHT22;9196;49.194;12.526;2023-09-12T09:58:54;26.60;99.90
18141;DHT22;9196;49.194;12.526;2023-09-12T10:01:22;26.60;99.90
18141;DHT22;9196;49.194;12.526;2023-09-12T10:03:51;26.70;99.90
18141;DHT22;9196;49.194;12.526;2023-09-12T10:06:20;26.90;99.90
18141;DHT22;9196;49.194;12.526;2023-09-12T10:08:51;27.00;99.90
18141;DHT22;9196;49.194;12.526;2023-09-12T10:11:22;27.10;99.90
18141;DHT22;9196;49.194;12.526;2023-09-12T10:13:52;27.10;99.90
18141;DHT22;9196;49.194;12.526;2023-09-12T10:16:22;27.20;99.90
18141;DHT22;9196;49.194;12.526;2023-09-12T10:18:57;27.40;99.90
18141;DHT22;9196;49.194;12.526;2023-09-12T10:21:29;27.60;99.90
18141;DHT22;9196;49.194;12.526;2023-09-12T10:23:58;27.70;99.90
18141;DHT22;9196;49.194;12.526;2023-09-12T10:26:25;27.90;98.70
18141;DHT22;9196;49.194;12.526;2023-09-12T10:28:54;27.90;98.10
18141;DHT22;9196;49.194;12.526;2023-09-12T10:31:22;27.90;96.40
18141;DHT22;9196;49.194;12.526;2023-09-12T10:33:51;27.80;94.90
18141;DHT22;9196;49.194;12.526;2023-09-12T10:36:19;27.70;95.40
18141;DHT22;9196;49.194;12.526;2023-09-12T10:38:49;27.60;95.60
18141;DHT22;9196;49.194;12.526;2023-09-12T10:41:16;27.70;94.50
18141;DHT22;9196;49.194;12.526;2023-09-12T10:43:44;27.70;95.20
18141;DHT22;9196;49.194;12.526;2023-09-12T10:46:15;27.90;95.00
18141;DHT22;9196;49.194;12.526;2023-09-12T10:48:42;28.00;94.30
18141;DHT22;9196;49.194;12.526;2023-09-12T10:51:10;28.20;94.90
18141;DHT22;9196;49.194;12.526;2023-09-12T10:53:38;28.20;94.30
18141;DHT22;9196;49.194;12.526;2023-09-12T10:56:16;28.20;94.20
18141;DHT22;9196;49.194;12.526;2023-09-12T10:59:09;28.20;93.80
18141;DHT22;9196;49.194;12.526;2023-09-12T11:01:38;28.10;94.20
18141;DHT22;9196;49.194;12.526;2023-09-12T11:04:33;28.00;93.00
18141;DHT22;9196;49.194;12.526;2023-09-12T11:07:00;28.10;93.60
18141;DHT22;9196;49.194;12.526;2023-09-12T11:09:27;28.20;93.00
18141;DHT22;9196;49.194;12.526;2023-09-12T11:11:58;28.20;93.20
18141;DHT22;9196;49.194;12.526;2023-09-12T11:14:25;28.30;92.60
18141;DHT22;9196;49.194;12.526;2023-09-12T11:17:25;28.30;93.20
18141;DHT22;9196;49.194;12.526;2023-09-12T11:19:52;28.60;93.50
18141;DHT22;9196;49.194;12.526;2023-09-12T11:22:24;28.70;90.40
18141;DHT22;9196;49.194;12.526;2023-09-12T11:24:51;28.70;91.20
18141;DHT22;9196;49.194;12.526;2023-09-12T11:27:19;28.90;91.70
18141;DHT22;9196;49.194;12.526;2023-09-12T11:29:47;28.80;91.10
18141;DHT22;9196;49.194;12.526;2023-09-12T11:32:26;28.90;91.10
18141;DHT22;9196;49.194;12.526;2023-09-12T11:34:53;29.10;91.80
18141;DHT22;9196;49.194;12.526;2023-09-12T11:37:24;29.30;91.20
18141;DHT22;9196;49.194;12.526;2023-09-12T11:39:51;29.50;90.60
18141;DHT22;9196;49.194;12.526;2023-09-12T11:42:20;29.50;91.10
18141;DHT22;9196;49.194;12.526;2023-09-12T11:44:48;29.40;89.80
18141;DHT22;9196;49.194;12.526;2023-09-12T11:47:16;29.40;90.30
18141;DHT22;9196;49.194;12.526;2023-09-12T11:49:43;29.20;88.80
18141;DHT22;9196;49.194;12.526;2023-09-12T11:52:12;29.20;90.30
18141;DHT22;9196;49.194;12.526;2023-09-12T11:54:39;29.40;90.00
18141;DHT22;9196;49.194;12.526;2023-09-12T11:57:07;29.60;88.30
18141;DHT22;9196;49.194;12.526;2023-09-12T11:59:38;29.60;88.40
18141;DHT22;9196;49.194;12.526;2023-09-12T12:02:07;29.60;88.80
18141;DHT22;9196;49.194;12.526;2023-09-12T12:04:34;29.80;88.40
18141;DHT22;9196;49.194;12.526;2023-09-12T12:07:04;30.00;88.10
18141;DHT22;9196;49.194;12.526;2023-09-12T12:09:31;29.90;86.20
18141;DHT22;9196;49.194;12.526;2023-09-12T12:12:04;30.00;85.90
18141;DHT22;9196;49.194;12.526;2023-09-12T12:14:34;30.20;87.10
18141;DHT22;9196;49.194;12.526;2023-09-12T12:17:07;30.50;88.80
18141;DHT22;9196;49.194;12.526;2023-09-12T12:19:35;30.80;85.30
18141;DHT22;9196;49.194;12.526;2023-09-12T12:22:03;30.60;82.70
18141;DHT22;9196;49.194;12.526;2023-09-12T12:24:39;30.60;83.50
18141;DHT22;9196;49.194;12.526;2023-09-12T12:27:06;30.70;83.30
18141;DHT22;9196;49.194;12.526;2023-09-12T12:29:36;30.60;83.80
18141;DHT22;9196;49.194;12.526;2023-09-12T12:32:06;30.60;84.40
18141;DHT22;9196;49.194;12.526;2023-09-12T12:34:35;30.50;82.80
18141;DHT22;9196;49.194;12.526;2023-09-12T12:37:03;30.40;84.80
18141;DHT22;9196;49.194;12.526;2023-09-12T12:39:31;30.50;84.50
18141;DHT22;9196;49.194;12.526;2023-09-12T12:41:59;30.60;84.10
18141;DHT22;9196;49.194;12.526;2023-09-12T12:44:33;30.40;82.50
18141;DHT22;9196;49.194;12.526;2023-09-12T12:47:04;30.60;85.00
18141;DHT22;9196;49.194;12.526;2023-09-12T12:49:36;30.70;84.60
18141;DHT22;9196;49.194;12.526;2023-09-12T12:52:05;30.70;80.60
18141;DHT22;9196;49.194;12.526;2023-09-12T12:54:32;30.70;82.10
18141;DHT22;9196;49.194;12.526;2023-09-12T12:57:00;30.80;81.60
18141;DHT22;9196;49.194;12.526;2023-09-12T12:59:27;31.00;81.60
18141;DHT22;9196;49.194;12.526;2023-09-12T13:01:55;30.80;81.60
18141;DHT22;9196;49.194;12.526;2023-09-12T13:04:24;31.00;83.50
18141;DHT22;9196;49.194;12.526;2023-09-12T13:06:52;31.00;80.90
18141;DHT22;9196;49.194;12.526;2023-09-12T13:09:19;30.90;82.80
18141;DHT22;9196;49.194;12.526;2023-09-12T13:11:47;30.60;82.60
18141;DHT22;9196;49.194;12.526;2023-09-12T13:14:21;30.40;82.50
18141;DHT22;9196;49.194;12.526;2023-09-12T13:17:01;30.60;82.70
18141;DHT22;9196;49.194;12.526;2023-09-12T13:19:39;30.50;83.10
18141;DHT22;9196;49.194;12.526;2023-09-12T13:22:22;30.70;84.10
18141;DHT22;9196;49.194;12.526;2023-09-12T13:24:49;31.00;81.70
18141;DHT22;9196;49.194;12.526;2023-09-12T13:27:16;31.20;81.40
18141;DHT22;9196;49.194;12.526;2023-09-12T13:29:43;31.30;81.20
18141;DHT22;9196;49.194;12.526;2023-09-12T13:32:10;31.30;80.90
18141;DHT22;9196;49.194;12.526;2023-09-12T13:34:38;31.50;81.20
18141;DHT22;9196;49.194;12.526;2023-09-12T13:37:05;31.50;80.80
18141;DHT22;9196;49.194;12.526;2023-09-12T13:39:34;31.70;80.10
18141;DHT22;9196;49.194;12.526;2023-09-12T13:42:01;31.10;80.60
18141;DHT22;9196;49.194;12.526;2023-09-12T13:44:29;30.80;81.70
18141;DHT22;9196;49.194;12.526;2023-09-12T13:46:56;30.90;82.30
18141;DHT22;9196;49.194;12.526;2023-09-12T13:49:23;30.80;80.90
18141;DHT22;9196;49.194;12.526;2023-09-12T13:51:50;30.50;81.20
18141;DHT22;9196;49.194;12.526;2023-09-12T13:54:17;30.60;83.70
18141;DHT22;9196;49.194;12.526;2023-09-12T13:56:45;30.80;83.90
18141;DHT22;9196;49.194;12.526;2023-09-12T13:59:12;30.90;84.00
18141;DHT22;9196;49.194;12.526;2023-09-12T14:01:39;30.70;83.60
18141;DHT22;9196;49.194;12.526;2023-09-12T14:04:06;30.40;84.30
18141;DHT22;9196;49.194;12.526;2023-09-12T14:06:33;30.00;85.20
18141;DHT22;9196;49.194;12.526;2023-09-12T14:09:00;29.90;86.70
18141;DHT22;9196;49.194;12.526;2023-09-12T14:11:27;29.60;86.60
18141;DHT22;9196;49.194;12.526;2023-09-12T14:13:55;29.60;87.10
18141;DHT22;9196;49.194;12.526;2023-09-12T14:16:22;29.80;88.40
18141;DHT22;9196;49.194;12.526;2023-09-12T14:18:49;30.10;88.80
18141;DHT22;9196;49.194;12.526;2023-09-12T14:21:16;30.30;86.80
18141;DHT22;9196;49.194;12.526;2023-09-12T14:23:43;30.40;86.70
18141;DHT22;9196;49.194;12.526;2023-09-12T14:26:10;30.50;86.20
18141;DHT22;9196;49.194;12.526;2023-09-12T14:28:36;30.30;85.50
18141;DHT22;9196;49.194;12.526;2023-09-12T14:31:05;30.50;86.80
18141;DHT22;9196;49.194;12.526;2023-09-12T14:33:39;30.60;87.60
18141;DHT22;9196;49.194;12.526;2023-09-12T14:36:07;30.60;88.40
18141;DHT22;9196;49.194;12.526;2023-09-12T14:38:34;30.90;88.20
18141;DHT22;9196;49.194;12.526;2023-09-12T14:41:01;31.20;86.70
18141;DHT22;9196;49.194;12.526;2023-09-12T14:43:28;31.10;84.80
18141;DHT22;9196;49.194;12.526;2023-09-12T14:45:55;30.80;85.00
18141;DHT22;9196;49.194;12.526;2023-09-12T14:48:23;30.50;85.40
18141;DHT22;9196;49.194;12.526;2023-09-12T14:50:50;30.40;85.90
18141;DHT22;9196;49.194;12.526;2023-09-12T14:53:17;30.30;87.40
18141;DHT22;9196;49.194;12.526;2023-09-12T14:55:44;30.60;87.30
18141;DHT22;9196;49.194;12.526;2023-09-12T14:58:11;30.80;85.30
18141;DHT22;9196;49.194;12.526;2023-09-12T15:00:38;30.70;85.50
18141;DHT22;9196;49.194;12.526;2023-09-12T15:03:04;31.00;87.10
18141;DHT22;9196;49.194;12.526;2023-09-12T15:05:33;31.30;83.60
18141;DHT22;9196;49.194;12.526;2023-09-12T15:08:00;31.40;83.80
18141;DHT22;9196;49.194;12.526;2023-09-12T15:10:27;31.10;83.10
18141;DHT22;9196;49.194;12.526;2023-09-12T15:12:53;31.10;84.20
18141;DHT22;9196;49.194;12.526;2023-09-12T15:15:20;30.80;85.00
18141;DHT22;9196;49.194;12.526;2023-09-12T15:17:47;30.70;85.00
18141;DHT22;9196;49.194;12.526;2023-09-12T15:20:14;30.60;86.20
18141;DHT22;9196;49.194;12.526;2023-09-12T15:22:43;30.90;87.40
18141;DHT22;9196;49.194;12.526;2023-09-12T15:25:10;31.40;84.50
18141;DHT22;9196;49.194;12.526;2023-09-12T15:27:37;31.50;84.20
18141;DHT22;9196;49.194;12.526;2023-09-12T15:30:10;31.40;82.80
18141;DHT22;9196;49.194;12.526;2023-09-12T15:32:37;31.30;83.70
18141;DHT22;9196;49.194;12.526;2023-09-12T15:35:05;31.50;83.80